createdAt,value
2018-02-17T00:02:06.813Z,39.74
2018-02-17T00:04:40.330Z,34.50
2018-02-17T00:07:08.590Z,40.16
2018-02-17T00:09:38.812Z,30.72
2018-02-17T00:12:07.066Z,33.86
2018-02-17T00:14:38.794Z,35.22
2018-02-17T00:17:06.282Z,32.08
2018-02-17T00:19:37.861Z,39.80
2018-02-17T00:22:06.110Z,37.06
2018-02-17T00:24:33.655Z,36.22
2018-02-17T00:27:01.911Z,40.54
2018-02-17T00:29:30.202Z,35.52
2018-02-17T00:31:58.467Z,32.68
2018-02-17T00:34:31.191Z,37.88
2018-02-17T00:36:59.478Z,36.34
2018-02-17T00:39:27.739Z,28.20
2018-02-17T00:41:56.876Z,31.22
2018-02-17T00:44:26.102Z,34.84
2018-02-17T00:46:54.399Z,32.86
2018-02-17T00:49:23.644Z,27.54
2018-02-17T00:51:51.898Z,28.12
2018-02-17T00:54:20.195Z,28.56
2018-02-17T00:56:48.448Z,26.36
2018-02-17T00:59:18.723Z,27.28
2018-02-17T01:01:47.018Z,26.36
2018-02-17T01:04:16.230Z,32.06
2018-02-17T01:06:44.479Z,29.18
2018-02-17T01:09:13.678Z,37.24
2018-02-17T01:11:41.936Z,26.34
2018-02-17T01:14:13.461Z,30.76
2018-02-17T01:16:41.709Z,27.24
2018-02-17T01:19:15.607Z,28.60
2018-02-17T01:21:43.875Z,28.36
2018-02-17T01:24:12.154Z,29.42
2018-02-17T01:26:40.415Z,22.68
2018-02-17T01:29:08.719Z,22.82
2018-02-17T01:31:36.973Z,25.82
2018-02-17T01:34:08.799Z,29.40
2018-02-17T01:36:37.071Z,28.26
2018-02-17T01:39:05.327Z,21.20
2018-02-17T01:41:33.615Z,24.54
2018-02-17T01:44:01.914Z,21.60
2018-02-17T01:46:30.177Z,23.94
2018-02-17T01:48:58.463Z,17.00
2018-02-17T01:51:27.858Z,24.10
2018-02-17T01:53:56.135Z,29.24
2018-02-17T01:56:24.420Z,21.38
2018-02-17T01:58:54.714Z,21.28
2018-02-17T02:01:22.999Z,21.04
2018-02-17T02:06:30.274Z,24.60
2018-02-17T02:08:58.530Z,23.16
2018-02-17T02:11:28.027Z,22.64
2018-02-17T02:13:57.707Z,19.76
2018-02-17T02:16:26.871Z,18.86
2018-02-17T02:18:55.141Z,20.98
2018-02-17T02:21:23.425Z,24.20
2018-02-17T02:23:55.751Z,23.32
2018-02-17T02:26:24.031Z,29.16
2018-02-17T02:28:52.287Z,17.48
2018-02-17T02:31:20.571Z,21.92
2018-02-17T02:33:48.855Z,23.24
2018-02-17T02:36:17.113Z,22.52
2018-02-17T02:38:46.327Z,19.64
2018-02-17T02:41:14.579Z,24.92
2018-02-17T02:43:49.060Z,23.00
2018-02-17T02:46:17.320Z,30.42
2018-02-17T02:48:45.576Z,21.28
2018-02-17T02:51:13.867Z,26.88
2018-02-17T02:53:48.490Z,22.98
2018-02-17T02:56:16.758Z,26.62
2018-02-17T02:58:46.059Z,25.36
2018-02-17T03:01:14.323Z,26.22
2018-02-17T03:03:42.583Z,24.30
2018-02-17T03:06:10.948Z,28.72
2018-02-17T03:08:44.559Z,22.62
2018-02-17T03:11:12.843Z,25.12
2018-02-17T03:13:41.135Z,29.02
2018-02-17T03:16:09.395Z,30.00
2018-02-17T03:18:38.618Z,28.58
2018-02-17T03:21:06.886Z,29.63
2018-02-17T03:23:35.141Z,26.68
2018-02-17T03:26:03.435Z,24.18
2018-02-17T03:28:44.338Z,20.68
2018-02-17T03:31:12.641Z,26.94
2018-02-17T03:33:40.902Z,22.16
2018-02-17T03:36:09.151Z,28.22
2018-02-17T03:38:38.350Z,23.44
2018-02-17T03:41:06.614Z,23.86
2018-02-17T03:43:47.478Z,22.80
2018-02-17T03:46:15.727Z,27.28
2018-02-17T03:48:48.166Z,21.40
2018-02-17T03:51:16.419Z,26.18
2018-02-17T03:53:46.603Z,22.24
2018-02-17T03:56:14.896Z,20.90
2018-02-17T03:58:48.935Z,19.02
2018-02-17T04:01:17.192Z,19.42
2018-02-17T04:03:45.473Z,23.68
2018-02-17T04:06:13.731Z,23.30
2018-02-17T04:08:50.106Z,18.20
2018-02-17T04:11:18.383Z,20.70
2018-02-17T04:13:46.633Z,21.10
2018-02-17T04:16:14.920Z,18.58
2018-02-17T04:18:43.167Z,21.32
2018-02-17T04:21:11.452Z,22.54
2018-02-17T04:23:46.358Z,24.42
2018-02-17T04:26:14.655Z,20.48
2018-02-17T04:28:47.815Z,20.20
2018-02-17T04:31:16.098Z,27.30
2018-02-17T04:33:48.031Z,17.72
2018-02-17T04:36:16.280Z,20.36
2018-02-17T04:38:44.570Z,25.18
2018-02-17T04:41:18.579Z,22.44
2018-02-17T04:44:06.732Z,19.32
2018-02-17T04:46:38.422Z,20.44
2018-02-17T04:49:22.631Z,25.73
2018-02-17T04:51:50.914Z,22.88
2018-02-17T04:54:34.847Z,22.28
2018-02-17T04:57:05.579Z,23.76
2018-02-17T04:59:39.454Z,26.58
2018-02-17T05:02:22.719Z,23.02
2018-02-17T05:05:07.752Z,19.22
2018-02-17T05:07:46.182Z,25.16
2018-02-17T05:10:14.431Z,20.50
2018-02-17T05:12:44.726Z,22.46
2018-02-17T05:15:14.535Z,26.92
2018-02-17T05:18:01.443Z,23.38
2018-02-17T05:20:44.403Z,22.86
2018-02-17T05:23:16.468Z,23.20
2018-02-17T05:25:44.718Z,25.84
2018-02-17T05:28:13.023Z,22.58
2018-02-17T05:30:42.770Z,19.42
2018-02-17T05:33:14.002Z,18.92
2018-02-17T05:35:54.779Z,31.24
2018-02-17T05:38:23.111Z,23.16
2018-02-17T05:40:52.143Z,23.70
2018-02-17T05:43:20.411Z,23.66
2018-02-17T05:45:50.119Z,27.64
2018-02-17T05:48:18.403Z,28.88
2018-02-17T05:50:47.634Z,21.68
2018-02-17T05:53:15.122Z,22.80
2018-02-17T05:55:43.405Z,30.70
2018-02-17T05:58:11.692Z,22.74
2018-02-17T06:00:39.955Z,38.24
2018-02-17T06:03:08.250Z,25.32
2018-02-17T06:05:43.419Z,27.86
2018-02-17T06:08:11.706Z,30.12
2018-02-17T06:10:40.883Z,28.86
2018-02-17T06:13:09.131Z,33.38
2018-02-17T06:15:57.624Z,25.04
2018-02-17T06:18:26.803Z,27.42
2018-02-17T06:20:55.116Z,24.34
2018-02-17T06:23:23.374Z,30.74
2018-02-17T06:25:51.662Z,29.58
2018-02-17T06:28:19.918Z,30.80
2018-02-17T06:30:48.181Z,27.36
2018-02-17T06:33:16.471Z,30.52
2018-02-17T06:35:43.981Z,24.56
2018-02-17T06:38:12.282Z,40.58
2018-02-17T06:40:40.538Z,32.96
2018-02-17T06:43:08.791Z,30.86
2018-02-17T06:45:37.087Z,35.74
2018-02-17T06:48:07.242Z,26.64
2018-02-17T06:50:35.619Z,36.50
2018-02-17T06:53:03.875Z,29.46
2018-02-17T06:55:32.131Z,27.08
2018-02-17T06:58:00.429Z,28.26
2018-02-17T07:00:28.690Z,30.96
2018-02-17T07:03:06.707Z,34.32
2018-02-17T07:05:34.976Z,35.92
2018-02-17T07:08:04.215Z,31.14
2018-02-17T07:10:31.730Z,26.60
2018-02-17T07:12:59.986Z,34.10
2018-02-17T07:15:27.524Z,23.38
2018-02-17T07:17:56.715Z,37.86
2018-02-17T07:20:25.778Z,29.84
2018-02-17T07:22:54.044Z,34.02
2018-02-17T07:25:22.299Z,41.98
2018-02-17T07:27:51.510Z,37.66
2018-02-17T07:30:19.775Z,33.90
2018-02-17T07:32:51.609Z,38.74
2018-02-17T07:35:19.867Z,30.60
2018-02-17T07:37:48.151Z,35.52
2018-02-17T07:40:18.364Z,34.02
2018-02-17T07:42:46.628Z,40.00
2018-02-17T07:45:27.918Z,31.78
2018-02-17T07:47:56.175Z,30.22
2018-02-17T07:50:23.691Z,34.60
2018-02-17T07:52:53.874Z,40.34
2018-02-17T07:55:22.174Z,35.78
2018-02-17T07:57:50.431Z,37.74
2018-02-17T08:00:18.727Z,31.14
2018-02-17T08:02:47.884Z,33.66
2018-02-17T08:05:16.138Z,31.42
2018-02-17T08:07:43.657Z,35.44
2018-02-17T08:10:11.911Z,34.78
2018-02-17T08:12:40.178Z,30.66
2018-02-17T08:15:08.462Z,42.12
2018-02-17T08:17:36.757Z,34.26
2018-02-17T08:20:05.015Z,33.46
2018-02-17T08:22:33.267Z,31.00
2018-02-17T08:25:01.544Z,35.34
2018-02-17T08:27:29.849Z,32.54
2018-02-17T08:29:58.105Z,34.56
2018-02-17T08:32:27.471Z,34.60
2018-02-17T08:34:56.617Z,30.64
2018-02-17T08:37:26.432Z,28.04
2018-02-17T08:39:54.727Z,33.50
2018-02-17T08:42:23.015Z,30.52
2018-02-17T08:44:58.050Z,38.20
2018-02-17T08:47:26.339Z,33.32
2018-02-17T08:49:54.634Z,38.32
2018-02-17T08:52:22.882Z,45.20
2018-02-17T08:54:52.151Z,40.46
2018-02-17T08:57:20.414Z,33.14
2018-02-17T08:59:48.702Z,34.52
2018-02-17T09:02:16.976Z,34.26
2018-02-17T09:04:45.267Z,44.82
2018-02-17T09:07:13.528Z,51.24
2018-02-17T09:09:41.814Z,40.12
2018-02-17T09:12:10.074Z,33.54
2018-02-17T09:14:38.463Z,34.52
2018-02-17T09:17:06.723Z,35.56
2018-02-17T09:19:34.970Z,34.58
2018-02-17T09:22:03.262Z,36.44
2018-02-17T09:24:31.523Z,33.30
2018-02-17T09:26:59.806Z,33.68
2018-02-17T09:29:28.091Z,37.96
2018-02-17T09:31:57.430Z,34.66
2018-02-17T09:34:27.819Z,37.18
2018-02-17T09:36:56.080Z,32.26
2018-02-17T09:39:24.376Z,34.98
2018-02-17T09:41:52.644Z,43.16
2018-02-17T09:44:20.166Z,42.54
2018-02-17T09:46:48.423Z,33.32
2018-02-17T09:49:16.712Z,36.20
2018-02-17T09:51:45.005Z,30.72
2018-02-17T09:54:13.258Z,43.64
2018-02-17T09:56:41.546Z,31.74
2018-02-17T09:59:09.848Z,32.42
2018-02-17T10:01:37.376Z,32.32
2018-02-17T10:04:05.682Z,35.66
2018-02-17T10:06:33.976Z,32.98
2018-02-17T10:09:02.266Z,35.24
2018-02-17T10:11:30.564Z,41.34
2018-02-17T10:13:58.869Z,40.70
2018-02-17T10:16:27.468Z,38.62
2018-02-17T10:18:56.426Z,44.58
2018-02-17T10:21:24.678Z,37.54
2018-02-17T10:23:52.199Z,40.22
2018-02-17T10:26:33.964Z,43.66
2018-02-17T10:29:02.222Z,37.64
2018-02-17T10:31:29.784Z,42.24
2018-02-17T10:33:58.071Z,36.46
2018-02-17T10:36:27.302Z,34.92
2018-02-17T10:38:57.005Z,51.48
2018-02-17T10:41:26.423Z,37.84
2018-02-17T10:43:54.707Z,40.24
2018-02-17T10:46:22.235Z,46.70
2018-02-17T10:48:50.517Z,43.64
2018-02-17T10:51:18.846Z,40.82
2018-02-17T10:53:46.367Z,31.54
2018-02-17T10:56:14.634Z,32.72
2018-02-17T10:58:42.919Z,28.68
2018-02-17T11:01:11.186Z,32.48
2018-02-17T11:03:39.488Z,35.26
2018-02-17T11:06:07.827Z,34.52
2018-02-17T11:08:36.087Z,40.52
2018-02-17T11:11:06.437Z,37.28
2018-02-17T11:13:33.931Z,39.94
2018-02-17T11:16:21.922Z,31.72
2018-02-17T11:18:50.214Z,42.18
2018-02-17T11:21:19.458Z,36.48
2018-02-17T11:23:47.731Z,32.68
2018-02-17T11:26:17.027Z,27.04
2018-02-17T11:28:45.292Z,31.36
2018-02-17T11:31:13.627Z,39.58
2018-02-17T11:33:41.911Z,30.66
2018-02-17T11:36:10.217Z,28.74
2018-02-17T11:38:38.504Z,40.48
2018-02-17T11:41:06.767Z,40.48
2018-02-17T11:43:35.058Z,32.48
2018-02-17T11:46:03.377Z,30.90
2018-02-17T11:48:31.635Z,41.46
2018-02-17T11:50:59.150Z,31.74
2018-02-17T11:53:29.747Z,27.88
2018-02-17T11:55:58.070Z,33.70
2018-02-17T11:58:27.327Z,29.22
2018-02-17T12:00:56.623Z,28.16
2018-02-17T12:03:26.514Z,32.46
2018-02-17T12:05:54.785Z,29.52
2018-02-17T12:08:23.058Z,29.12
2018-02-17T12:10:51.313Z,36.16
2018-02-17T12:13:26.777Z,29.56
2018-02-17T12:15:55.806Z,20.58
2018-02-17T12:18:25.748Z,19.88
2018-02-17T12:20:53.994Z,24.08
2018-02-17T12:23:22.282Z,39.84
2018-02-17T12:25:50.531Z,17.36
2018-02-17T12:28:18.790Z,12.64
2018-02-17T12:30:47.069Z,65.50
2018-02-17T12:33:18.471Z,20.84
2018-02-17T12:35:46.756Z,25.94
2018-02-17T12:38:15.021Z,25.10
2018-02-17T12:40:44.292Z,29.22
2018-02-17T12:43:12.541Z,22.56
2018-02-17T12:45:42.756Z,27.88
2018-02-17T12:48:11.017Z,22.66
2018-02-17T12:50:42.378Z,16.94
2018-02-17T12:53:10.627Z,16.58
2018-02-17T12:55:42.357Z,17.42
2018-02-17T12:58:10.604Z,21.96
2018-02-17T13:00:39.787Z,24.96
2018-02-17T13:03:08.066Z,21.70
2018-02-17T13:05:36.318Z,17.54
2018-02-17T13:08:04.607Z,26.74
2018-02-17T13:10:32.870Z,25.54
2018-02-17T13:13:01.159Z,19.78
2018-02-17T13:15:29.418Z,28.28
2018-02-17T13:17:57.699Z,22.30
2018-02-17T13:20:31.827Z,21.74
2018-02-17T13:23:00.142Z,15.94
2018-02-17T13:25:29.379Z,22.86
2018-02-17T13:27:57.687Z,22.22
2018-02-17T13:30:25.950Z,16.98
2018-02-17T13:32:54.194Z,21.70
2018-02-17T13:35:22.478Z,24.22
2018-02-17T13:37:50.731Z,14.60
2018-02-17T13:40:19.011Z,14.98
2018-02-17T13:42:47.292Z,17.38
2018-02-17T13:45:15.584Z,19.62
2018-02-17T13:47:44.042Z,20.96
2018-02-17T13:50:12.340Z,20.96
2018-02-17T13:52:47.682Z,20.20
2018-02-17T13:55:15.979Z,17.16
2018-02-17T13:57:43.502Z,16.68
2018-02-17T14:00:11.759Z,19.92
2018-02-17T14:02:47.989Z,27.66
2018-02-17T14:05:16.235Z,15.62
2018-02-17T14:07:44.495Z,18.80
2018-02-17T14:10:12.780Z,21.60
2018-02-17T14:12:44.534Z,26.92
2018-02-17T14:15:12.787Z,17.92
2018-02-17T14:17:43.015Z,18.42
2018-02-17T14:20:11.267Z,16.86
2018-02-17T14:22:38.782Z,20.32
2018-02-17T14:25:07.035Z,18.52
2018-02-17T14:27:36.338Z,17.90
2018-02-17T14:30:04.590Z,28.54
2018-02-17T14:32:33.846Z,16.50
2018-02-17T14:35:02.135Z,17.06
2018-02-17T14:37:31.334Z,29.10
2018-02-17T14:39:59.587Z,29.38
2018-02-17T14:42:27.879Z,24.32
2018-02-17T14:45:06.682Z,27.52
2018-02-17T14:47:34.970Z,24.50
2018-02-17T14:50:07.084Z,24.78
2018-02-17T14:52:35.344Z,23.20
2018-02-17T14:55:09.039Z,22.70
2018-02-17T14:57:47.351Z,23.76
2018-02-17T15:00:15.649Z,30.06
2018-02-17T15:02:44.842Z,23.22
2018-02-17T15:05:13.103Z,34.84
2018-02-17T15:07:51.790Z,24.18
2018-02-17T15:10:20.014Z,24.16
2018-02-17T15:12:49.234Z,24.80
2018-02-17T15:15:17.497Z,25.10
2018-02-17T15:17:46.794Z,22.64
2018-02-17T15:20:15.043Z,37.98
2018-02-17T15:22:43.355Z,23.86
2018-02-17T15:25:11.635Z,22.86
2018-02-17T15:27:43.239Z,27.00
2018-02-17T15:30:11.524Z,29.14
2018-02-17T15:32:40.755Z,32.40
2018-02-17T15:35:10.988Z,24.06
2018-02-17T15:37:39.274Z,31.40
2018-02-17T15:40:09.474Z,19.80
2018-02-17T15:42:37.738Z,25.60
2018-02-17T15:45:05.233Z,40.26
2018-02-17T15:47:33.529Z,26.00
2018-02-17T15:50:01.786Z,26.56
2018-02-17T15:52:31.081Z,21.46
2018-02-17T15:54:59.339Z,21.08
2018-02-17T15:57:27.630Z,25.64
2018-02-17T15:59:56.695Z,22.66
2018-02-17T16:02:28.243Z,25.38
2018-02-17T16:04:57.338Z,25.78
2018-02-17T16:07:27.678Z,29.16
2018-02-17T16:09:56.530Z,24.56
2018-02-17T16:12:24.803Z,26.62
2018-02-17T16:14:53.071Z,24.24
2018-02-17T16:17:21.367Z,28.86
2018-02-17T16:19:49.621Z,29.86
2018-02-17T16:22:17.914Z,27.62
2018-02-17T16:24:46.203Z,24.56
2018-02-17T16:27:19.134Z,34.74
2018-02-17T16:29:47.422Z,33.16
2018-02-17T16:32:18.291Z,29.42
2018-02-17T16:34:46.537Z,33.54
2018-02-17T16:37:14.063Z,28.02
2018-02-17T16:39:42.324Z,29.82
2018-02-17T16:42:10.622Z,24.30
2018-02-17T16:44:38.876Z,32.16
2018-02-17T16:47:07.131Z,26.94
2018-02-17T16:49:35.424Z,25.46
2018-02-17T16:52:03.715Z,31.66
2018-02-17T16:54:32.004Z,28.42
2018-02-17T16:57:00.259Z,30.24
2018-02-17T16:59:28.543Z,27.46
2018-02-17T17:01:57.875Z,24.56
2018-02-17T17:04:26.153Z,28.00
2018-02-17T17:06:54.415Z,32.24
2018-02-17T17:09:22.707Z,26.78
2018-02-17T17:11:50.990Z,27.44
2018-02-17T17:14:19.265Z,33.98
2018-02-17T17:16:47.571Z,31.52
2018-02-17T17:19:15.867Z,27.24
2018-02-17T17:21:47.801Z,28.04
2018-02-17T17:24:16.057Z,26.60
2018-02-17T17:26:57.550Z,28.16
2018-02-17T17:29:26.367Z,23.12
2018-02-17T17:31:54.622Z,27.24
2018-02-17T17:34:22.907Z,29.44
2018-02-17T17:36:51.202Z,33.98
2018-02-17T17:39:19.499Z,28.72
2018-02-17T17:41:47.843Z,29.74
2018-02-17T17:44:16.128Z,35.80
2018-02-17T17:46:44.414Z,37.18
2018-02-17T17:49:12.703Z,35.50
2018-02-17T17:51:41.058Z,31.86
2018-02-17T17:54:09.317Z,27.86
2018-02-17T17:56:43.687Z,26.04
2018-02-17T17:59:11.975Z,32.15
2018-02-17T18:01:40.302Z,35.90
2018-02-17T18:04:08.582Z,31.12
2018-02-17T18:06:36.836Z,39.18
2018-02-17T18:09:05.115Z,34.60
2018-02-17T18:11:33.363Z,36.66
2018-02-17T18:14:01.672Z,28.52
2018-02-17T18:16:30.043Z,32.58
2018-02-17T18:18:58.299Z,30.20
2018-02-17T18:21:28.564Z,37.40
2018-02-17T18:23:57.682Z,36.50
2018-02-17T18:26:26.399Z,31.68
2018-02-17T18:28:54.719Z,27.42
2018-02-17T18:31:23.022Z,24.62
2018-02-17T18:34:00.930Z,30.16
2018-02-17T18:36:29.178Z,29.64
2018-02-17T18:39:08.028Z,32.66
2018-02-17T18:41:36.286Z,36.18
2018-02-17T18:44:04.582Z,31.74
2018-02-17T18:46:32.063Z,32.28
2018-02-17T18:49:00.404Z,33.66
2018-02-17T18:51:28.654Z,30.84
2018-02-17T18:54:01.828Z,39.72
2018-02-17T18:56:30.083Z,35.70
2018-02-17T18:58:58.375Z,34.14
2018-02-17T19:01:27.331Z,33.54
2018-02-17T19:03:59.213Z,34.82
2018-02-17T19:06:27.498Z,38.42
2018-02-17T19:09:01.867Z,37.12
2018-02-17T19:11:30.167Z,31.48
2018-02-17T19:13:58.529Z,34.16
2018-02-17T19:16:27.831Z,39.52
2018-02-17T19:18:56.652Z,36.08
2018-02-17T19:21:25.675Z,31.22
2018-02-17T19:23:53.956Z,33.70
2018-02-17T19:26:22.198Z,34.62
2018-02-17T19:28:50.478Z,41.62
2018-02-17T19:31:18.818Z,44.92
2018-02-17T19:33:46.310Z,35.82
2018-02-17T19:36:14.622Z,34.08
2018-02-17T19:38:42.879Z,37.80
2018-02-17T19:41:13.207Z,28.90
2018-02-17T19:43:41.459Z,38.10
2018-02-17T19:46:09.715Z,32.72
2018-02-17T19:48:38.921Z,39.00
2018-02-17T19:51:07.201Z,37.98
2018-02-17T19:53:39.251Z,54.66
2018-02-17T19:56:07.515Z,39.28
2018-02-17T19:58:35.882Z,39.60
2018-02-17T20:01:04.171Z,36.56
2018-02-17T20:03:32.457Z,53.20
2018-02-17T20:06:00.751Z,38.52
2018-02-17T20:08:34.850Z,37.02
2018-02-17T20:11:03.107Z,41.46
2018-02-17T20:13:31.490Z,34.22
2018-02-17T20:15:59.742Z,41.28
2018-02-17T20:18:28.042Z,31.26
2018-02-17T20:20:57.266Z,42.38
2018-02-17T20:23:26.231Z,44.04
2018-02-17T20:25:54.519Z,46.52
2018-02-17T20:28:22.790Z,41.80
2018-02-17T20:30:51.074Z,38.88
2018-02-17T20:33:19.355Z,34.52
2018-02-17T20:35:47.642Z,31.24
2018-02-17T20:38:15.902Z,32.08
2018-02-17T20:40:44.286Z,41.98
2018-02-17T20:43:11.768Z,62.86
2018-02-17T20:45:40.023Z,49.50
2018-02-17T20:48:08.391Z,51.70
2018-02-17T20:50:38.674Z,39.48
2018-02-17T20:53:06.966Z,46.08
2018-02-17T20:55:35.282Z,40.12
2018-02-17T20:58:03.539Z,50.00
2018-02-17T21:00:31.824Z,49.02
2018-02-17T21:03:00.074Z,66.96
2018-02-17T21:05:28.412Z,45.36
2018-02-17T21:07:57.366Z,40.14
2018-02-17T21:10:26.448Z,37.42
2018-02-17T21:12:54.730Z,44.64
2018-02-17T21:15:22.216Z,40.48
2018-02-17T21:17:50.514Z,47.32
2018-02-17T21:20:18.764Z,36.36
2018-02-17T21:22:46.247Z,39.26
2018-02-17T21:25:15.587Z,46.86
2018-02-17T21:27:43.847Z,46.16
2018-02-17T21:30:12.150Z,43.38
2018-02-17T21:32:40.418Z,47.84
2018-02-17T21:35:08.675Z,43.16
2018-02-17T21:37:38.974Z,42.08
2018-02-17T21:40:07.222Z,45.72
2018-02-17T21:42:40.709Z,45.54
2018-02-17T21:45:08.967Z,62.42
2018-02-17T21:47:40.922Z,63.92
2018-02-17T21:50:09.207Z,55.40
2018-02-17T21:52:37.515Z,55.80
2018-02-17T21:55:05.775Z,61.88
2018-02-17T21:57:34.128Z,48.22
2018-02-17T22:00:02.467Z,52.22
2018-02-17T22:02:30.712Z,57.12
2018-02-17T22:04:58.990Z,66.28
2018-02-17T22:07:27.335Z,61.56
2018-02-17T22:09:57.306Z,53.00
2018-02-17T22:12:26.923Z,55.98
2018-02-17T22:14:54.451Z,56.12
2018-02-17T22:17:22.778Z,49.62
2018-02-17T22:19:51.059Z,54.90
2018-02-17T22:22:19.311Z,50.36
2018-02-17T22:24:47.590Z,43.12
2018-02-17T22:27:17.972Z,47.52
2018-02-17T22:29:46.222Z,44.02
2018-02-17T22:32:17.133Z,42.50
2018-02-17T22:34:45.404Z,42.82
2018-02-17T22:37:21.994Z,44.42
2018-02-17T22:39:50.255Z,52.53
2018-02-17T22:42:18.557Z,46.32
2018-02-17T22:44:46.818Z,42.28
2018-02-17T22:47:15.076Z,51.56
2018-02-17T22:49:43.363Z,47.12
2018-02-17T22:52:11.606Z,46.14
2018-02-17T22:54:39.886Z,50.92
2018-02-17T22:57:15.195Z,52.94
2018-02-17T22:59:43.502Z,45.28
2018-02-17T23:02:11.794Z,42.70
2018-02-17T23:04:40.043Z,52.42
2018-02-17T23:07:08.351Z,49.24
2018-02-17T23:09:36.602Z,50.02
2018-02-17T23:12:04.904Z,52.70
2018-02-17T23:14:33.197Z,57.08
2018-02-17T23:17:01.459Z,48.10
2018-02-17T23:19:29.758Z,49.07
2018-02-17T23:21:58.318Z,47.10
2018-02-17T23:24:28.058Z,56.20
2018-02-17T23:27:02.273Z,48.36
2018-02-17T23:29:30.542Z,52.38
2018-02-17T23:31:58.838Z,52.58
2018-02-17T23:34:28.435Z,45.46
2018-02-17T23:36:58.059Z,43.32
2018-02-17T23:39:26.814Z,47.78
2018-02-17T23:41:58.726Z,49.38
2018-02-17T23:44:27.527Z,44.32
2018-02-17T23:46:56.814Z,44.08
2018-02-17T23:49:25.872Z,57.50
2018-02-17T23:51:54.229Z,44.42
2018-02-17T23:54:22.474Z,54.63
2018-02-17T23:56:50.787Z,53.30
2018-02-17T23:59:19.062Z,49.13
